createdAt,value
2018-02-25T00:01:35.721Z,-3.95
2018-02-25T00:04:09.466Z,-3.89
2018-02-25T00:06:43.184Z,-3.85
2018-02-25T00:09:16.937Z,-3.90
2018-02-25T00:11:50.821Z,-4.02
2018-02-25T00:14:24.768Z,-3.99
2018-02-25T00:20:08.364Z,-3.95
2018-02-25T00:22:42.069Z,-4.03
2018-02-25T00:25:15.984Z,-4.09
2018-02-25T00:27:49.940Z,-4.11
2018-02-25T00:30:23.600Z,-4.19
2018-02-25T00:32:57.381Z,-4.27
2018-02-25T00:35:31.128Z,-4.34
2018-02-25T00:38:04.883Z,-4.30
2018-02-25T00:40:38.649Z,-4.22
2018-02-25T00:43:12.442Z,-4.25
2018-02-25T00:45:46.214Z,-4.30
2018-02-25T00:48:20.256Z,-4.32
2018-02-25T00:50:54.152Z,-4.33
2018-02-25T00:53:28.069Z,-4.35
2018-02-25T00:56:01.830Z,-4.48
2018-02-25T00:58:35.550Z,-4.53
2018-02-25T01:01:09.363Z,-4.55
2018-02-25T01:03:43.067Z,-4.51
2018-02-25T01:06:16.786Z,-4.55
2018-02-25T01:08:50.570Z,-4.53
2018-02-25T01:11:24.422Z,-4.55
2018-02-25T01:13:58.272Z,-4.61
2018-02-25T01:16:32.115Z,-4.68
2018-02-25T01:19:05.906Z,-4.78
2018-02-25T01:21:39.759Z,-4.79
2018-02-25T01:24:13.616Z,-4.82
2018-02-25T01:26:47.372Z,-4.80
2018-02-25T01:29:21.177Z,-4.84
2018-02-25T01:31:55.022Z,-4.82
2018-02-25T01:34:28.786Z,-4.86
2018-02-25T01:37:02.682Z,-4.74
2018-02-25T01:39:36.456Z,-4.83
2018-02-25T01:42:10.272Z,-4.87
2018-02-25T01:44:44.110Z,-4.89
2018-02-25T01:47:17.887Z,-4.92
2018-02-25T01:49:51.614Z,-4.92
2018-02-25T01:52:25.467Z,-5.03
2018-02-25T01:54:59.396Z,-5.10
2018-02-25T01:57:33.219Z,-5.15
2018-02-25T02:00:06.984Z,-5.16
2018-02-25T02:02:40.757Z,-5.15
2018-02-25T02:05:14.530Z,-5.10
2018-02-25T02:07:48.246Z,-5.17
2018-02-25T02:10:22.128Z,-5.22
2018-02-25T02:12:55.978Z,-5.22
2018-02-25T02:15:29.750Z,-5.14
2018-02-25T02:18:03.499Z,-5.17
2018-02-25T02:20:37.422Z,-5.23
2018-02-25T02:23:11.290Z,-5.28
2018-02-25T02:25:45.288Z,-5.23
2018-02-25T02:28:19.507Z,-5.27
2018-02-25T02:30:53.263Z,-5.35
2018-02-25T02:33:27.013Z,-5.35
2018-02-25T02:36:00.748Z,-5.37
2018-02-25T02:38:34.537Z,-5.47
2018-02-25T02:41:08.268Z,-5.39
2018-02-25T02:43:41.972Z,-5.48
2018-02-25T02:46:16.055Z,-5.49
2018-02-25T02:48:50.048Z,-5.56
2018-02-25T02:51:23.823Z,-5.61
2018-02-25T02:53:57.705Z,-5.64
2018-02-25T02:56:31.566Z,-5.68
2018-02-25T02:59:05.494Z,-5.70
2018-02-25T03:01:39.347Z,-5.66
2018-02-25T03:04:13.225Z,-5.58
2018-02-25T03:06:46.954Z,-5.60
2018-02-25T03:09:20.814Z,-5.63
2018-02-25T03:11:54.690Z,-5.71
2018-02-25T03:14:28.434Z,-5.73
2018-02-25T03:17:07.919Z,-5.75
2018-02-25T03:19:41.670Z,-5.77
2018-02-25T03:22:15.503Z,-5.91
2018-02-25T03:24:49.503Z,-5.92
2018-02-25T03:27:23.371Z,-5.89
2018-02-25T03:29:57.117Z,-5.99
2018-02-25T03:32:30.954Z,-6.02
2018-02-25T03:35:04.730Z,-6.11
2018-02-25T03:37:38.470Z,-6.07
2018-02-25T03:40:12.306Z,-6.11
2018-02-25T03:42:46.038Z,-6.06
2018-02-25T03:45:19.876Z,-6.05
2018-02-25T03:47:53.579Z,-6.03
2018-02-25T03:50:27.399Z,-6.12
2018-02-25T03:53:01.303Z,-6.18
2018-02-25T03:55:35.062Z,-6.17
2018-02-25T03:58:08.919Z,-6.16
2018-02-25T04:00:42.886Z,-6.11
2018-02-25T04:03:16.579Z,-6.08
2018-02-25T04:05:50.407Z,-6.21
2018-02-25T04:08:24.107Z,-6.24
2018-02-25T04:10:57.872Z,-6.16
2018-02-25T04:13:31.823Z,-6.26
2018-02-25T04:16:05.543Z,-6.29
2018-02-25T04:18:39.299Z,-6.25
2018-02-25T04:21:13.102Z,-6.32
2018-02-25T04:23:46.843Z,-6.39
2018-02-25T04:26:20.719Z,-6.44
2018-02-25T04:28:54.574Z,-6.41
2018-02-25T04:31:28.447Z,-6.42
2018-02-25T04:34:02.171Z,-6.40
2018-02-25T04:36:35.998Z,-6.36
2018-02-25T04:39:09.700Z,-6.42
2018-02-25T04:41:43.617Z,-6.44
2018-02-25T04:44:17.527Z,-6.49
2018-02-25T04:50:02.715Z,-6.35
2018-02-25T04:52:36.506Z,-6.41
2018-02-25T04:55:10.204Z,-6.36
2018-02-25T04:57:44.239Z,-6.33
2018-02-25T05:00:18.076Z,-6.33
2018-02-25T05:02:51.918Z,-6.29
2018-02-25T05:05:25.696Z,-6.34
2018-02-25T05:07:59.630Z,-6.36
2018-02-25T05:10:33.571Z,-6.32
2018-02-25T05:13:07.311Z,-6.41
2018-02-25T05:15:41.186Z,-6.47
2018-02-25T05:18:14.919Z,-6.52
2018-02-25T05:20:48.671Z,-6.47
2018-02-25T05:23:22.466Z,-6.54
2018-02-25T05:25:56.447Z,-6.61
2018-02-25T05:28:30.175Z,-6.54
2018-02-25T05:31:03.908Z,-6.57
2018-02-25T05:33:37.627Z,-6.58
2018-02-25T05:36:12.270Z,-6.54
2018-02-25T05:38:46.146Z,-6.53
2018-02-25T05:41:19.843Z,-6.54
2018-02-25T05:43:53.798Z,-6.56
2018-02-25T05:46:27.531Z,-6.59
2018-02-25T05:49:01.333Z,-6.69
2018-02-25T05:51:35.106Z,-6.66
2018-02-25T05:54:08.889Z,-6.67
2018-02-25T05:56:42.728Z,-6.71
2018-02-25T05:59:16.519Z,-6.80
2018-02-25T06:01:50.422Z,-6.78
2018-02-25T06:04:24.155Z,-6.67
2018-02-25T06:06:58.078Z,-6.70
2018-02-25T06:09:31.818Z,-6.72
2018-02-25T06:12:05.803Z,-6.70
2018-02-25T06:14:39.652Z,-6.82
2018-02-25T06:17:13.431Z,-6.83
2018-02-25T06:19:47.166Z,-6.80
2018-02-25T06:22:20.978Z,-6.80
2018-02-25T06:24:54.866Z,-6.81
2018-02-25T06:27:28.630Z,-6.89
2018-02-25T06:30:02.416Z,-6.87
2018-02-25T06:32:36.199Z,-6.90
2018-02-25T06:35:10.107Z,-6.78
2018-02-25T06:37:43.927Z,-6.76
2018-02-25T06:40:17.752Z,-6.82
2018-02-25T06:42:51.467Z,-6.87
2018-02-25T06:45:25.326Z,-6.79
2018-02-25T06:47:59.023Z,-6.77
2018-02-25T06:50:32.883Z,-6.76
2018-02-25T06:53:06.589Z,-6.75
2018-02-25T06:55:40.375Z,-6.73
2018-02-25T06:58:14.230Z,-6.76
2018-02-25T07:00:47.974Z,-6.78
2018-02-25T07:03:21.732Z,-6.73
2018-02-25T07:05:55.535Z,-6.70
2018-02-25T07:08:29.258Z,-6.66
2018-02-25T07:11:03.022Z,-6.61
2018-02-25T07:13:36.716Z,-6.60
2018-02-25T07:16:10.513Z,-6.52
2018-02-25T07:18:44.275Z,-6.59
2018-02-25T07:21:18.080Z,-6.52
2018-02-25T07:23:51.838Z,-6.44
2018-02-25T07:26:25.773Z,-6.44
2018-02-25T07:28:59.519Z,-6.36
2018-02-25T07:31:33.536Z,-6.23
2018-02-25T07:34:07.397Z,-5.55
2018-02-25T07:36:41.155Z,-3.07
2018-02-25T07:39:14.917Z,0.00
2018-02-25T07:41:48.704Z,3.71
2018-02-25T07:44:22.338Z,3.00
2018-02-25T07:46:56.126Z,4.52
2018-02-25T07:49:29.807Z,6.16
2018-02-25T07:52:03.520Z,8.09
2018-02-25T07:54:37.214Z,8.96
2018-02-25T07:57:10.949Z,9.52
2018-02-25T07:59:44.594Z,8.02
2018-02-25T08:02:18.279Z,7.42
2018-02-25T08:04:52.064Z,8.92
2018-02-25T08:07:25.771Z,7.93
2018-02-25T08:09:59.467Z,8.67
2018-02-25T08:12:33.210Z,9.57
2018-02-25T08:15:06.859Z,7.71
2018-02-25T08:17:40.587Z,7.61
2018-02-25T08:20:14.350Z,6.30
2018-02-25T08:22:48.134Z,4.96
2018-02-25T08:25:21.830Z,4.05
2018-02-25T08:27:55.686Z,3.24
2018-02-25T08:30:29.375Z,4.50
2018-02-25T08:33:03.127Z,4.22
2018-02-25T08:35:36.933Z,3.18
2018-02-25T08:38:10.652Z,4.58
2018-02-25T08:40:44.422Z,5.00
2018-02-25T08:43:18.114Z,5.50
2018-02-25T08:45:51.787Z,4.69
2018-02-25T08:48:25.638Z,4.38
2018-02-25T08:50:59.348Z,3.80
2018-02-25T08:53:33.767Z,3.12
2018-02-25T08:56:07.626Z,2.85
2018-02-25T08:58:41.332Z,1.81
2018-02-25T09:01:15.141Z,2.17
2018-02-25T09:03:48.788Z,2.04
2018-02-25T09:06:22.468Z,3.94
2018-02-25T09:08:56.298Z,4.36
2018-02-25T09:11:29.939Z,4.88
2018-02-25T09:14:03.772Z,4.87
2018-02-25T09:16:37.598Z,4.40
2018-02-25T09:19:11.574Z,3.46
2018-02-25T09:21:45.441Z,3.17
2018-02-25T09:24:19.049Z,2.89
2018-02-25T09:26:52.770Z,2.23
2018-02-25T09:29:26.726Z,2.16
2018-02-25T09:32:00.387Z,3.37
2018-02-25T09:34:34.061Z,3.81
2018-02-25T09:37:07.758Z,3.77
2018-02-25T09:39:41.474Z,3.36
2018-02-25T09:42:15.156Z,4.12
2018-02-25T09:44:48.947Z,4.07
2018-02-25T09:47:22.892Z,4.30
2018-02-25T09:49:56.643Z,3.74
2018-02-25T09:52:30.440Z,2.29
2018-02-25T09:55:04.123Z,1.02
2018-02-25T09:57:37.875Z,-0.03
2018-02-25T10:00:11.637Z,-0.33
2018-02-25T10:02:45.687Z,-0.45
2018-02-25T10:05:19.073Z,-0.41
2018-02-25T10:07:52.982Z,-0.75
2018-02-25T10:10:26.734Z,-0.83
2018-02-25T10:13:00.456Z,-0.96
2018-02-25T10:15:34.064Z,-1.03
2018-02-25T10:18:07.734Z,-0.99
2018-02-25T10:20:41.354Z,-1.19
2018-02-25T10:23:15.056Z,-1.09
2018-02-25T10:25:48.870Z,-1.34
2018-02-25T10:28:22.684Z,-1.28
2018-02-25T10:30:56.579Z,-1.28
2018-02-25T10:33:30.517Z,-1.13
2018-02-25T10:36:04.279Z,-0.85
2018-02-25T10:38:37.983Z,-0.94
2018-02-25T10:41:11.903Z,-0.69
2018-02-25T10:43:45.654Z,-0.79
2018-02-25T10:46:19.365Z,-0.75
2018-02-25T10:48:53.095Z,-0.57
2018-02-25T10:51:26.782Z,-0.71
2018-02-25T10:54:00.618Z,-0.59
2018-02-25T10:56:34.602Z,-0.46
2018-02-25T10:59:08.434Z,-0.53
2018-02-25T11:01:42.094Z,-0.85
2018-02-25T11:04:15.742Z,-0.75
2018-02-25T11:06:49.450Z,-0.90
2018-02-25T11:09:23.243Z,-0.86
2018-02-25T11:11:57.113Z,-0.81
2018-02-25T11:14:30.959Z,-0.73
2018-02-25T11:17:04.668Z,-0.61
2018-02-25T11:19:38.361Z,-0.84
2018-02-25T11:22:12.119Z,-0.70
2018-02-25T11:24:45.787Z,-0.67
2018-02-25T11:27:19.659Z,-0.93
2018-02-25T11:29:53.385Z,-0.71
2018-02-25T11:32:27.068Z,-0.66
2018-02-25T11:35:00.775Z,-0.64
2018-02-25T11:37:34.803Z,-0.61
2018-02-25T11:40:08.475Z,-0.60
2018-02-25T11:42:42.135Z,-0.25
2018-02-25T11:45:16.023Z,-0.01
2018-02-25T11:47:49.832Z,-0.09
2018-02-25T11:50:23.503Z,0.01
2018-02-25T11:52:57.176Z,-0.03
2018-02-25T11:55:32.400Z,-0.25
2018-02-25T11:58:06.350Z,-0.42
2018-02-25T12:00:40.278Z,-0.60
2018-02-25T12:03:14.048Z,-0.59
2018-02-25T12:05:47.740Z,-0.65
2018-02-25T12:08:21.452Z,-0.63
2018-02-25T12:10:55.144Z,-0.69
2018-02-25T12:13:28.853Z,-0.72
2018-02-25T12:16:02.579Z,-0.74
2018-02-25T12:18:36.503Z,-0.70
2018-02-25T12:21:10.235Z,-0.73
2018-02-25T12:23:44.180Z,-0.65
2018-02-25T12:26:17.881Z,-0.70
2018-02-25T12:28:51.566Z,-0.70
2018-02-25T12:31:25.326Z,-0.68
2018-02-25T12:33:59.050Z,-0.79
2018-02-25T12:36:32.806Z,-0.74
2018-02-25T12:39:06.686Z,-0.77
2018-02-25T12:41:40.503Z,-0.89
2018-02-25T12:44:14.248Z,-0.97
2018-02-25T12:46:47.942Z,-0.90
2018-02-25T12:49:21.686Z,-0.83
2018-02-25T12:51:55.575Z,-0.76
2018-02-25T12:54:29.375Z,-0.70
2018-02-25T12:57:03.127Z,-0.71
2018-02-25T12:59:36.999Z,-0.76
2018-02-25T13:02:10.919Z,-0.76
2018-02-25T13:04:44.907Z,-0.75
2018-02-25T13:07:18.726Z,-0.73
2018-02-25T13:09:52.502Z,-0.71
2018-02-25T13:12:26.323Z,-0.69
2018-02-25T13:15:00.110Z,-0.57
2018-02-25T13:17:33.907Z,-0.58
2018-02-25T13:20:07.655Z,-0.60
2018-02-25T13:22:41.473Z,-0.66
2018-02-25T13:25:15.423Z,-0.65
2018-02-25T13:27:49.429Z,-0.60
2018-02-25T13:30:23.322Z,-0.70
2018-02-25T13:32:57.218Z,-0.71
2018-02-25T13:35:30.975Z,-0.71
2018-02-25T13:38:04.857Z,-0.66
2018-02-25T13:40:38.586Z,-0.58
2018-02-25T13:43:12.482Z,-0.42
2018-02-25T13:45:46.395Z,-0.18
2018-02-25T13:48:20.209Z,0.00
2018-02-25T13:50:54.174Z,0.17
2018-02-25T13:53:28.013Z,0.29
2018-02-25T13:56:01.868Z,0.33
2018-02-25T13:58:35.531Z,0.07
2018-02-25T14:01:09.391Z,0.16
2018-02-25T14:03:43.219Z,0.26
2018-02-25T14:06:17.083Z,0.24
2018-02-25T14:08:50.911Z,0.18
2018-02-25T14:11:24.570Z,-0.17
2018-02-25T14:13:58.273Z,-0.27
2018-02-25T14:16:32.111Z,-0.40
2018-02-25T14:19:05.902Z,-0.41
2018-02-25T14:21:39.538Z,0.01
2018-02-25T14:24:13.393Z,-0.14
2018-02-25T14:26:47.166Z,-0.35
2018-02-25T14:29:22.369Z,-0.41
2018-02-25T14:31:56.250Z,-0.51
2018-02-25T14:34:29.930Z,-0.60
2018-02-25T14:37:03.777Z,-0.62
2018-02-25T14:39:37.589Z,-0.66
2018-02-25T14:42:11.659Z,-0.55
2018-02-25T14:44:45.455Z,-0.58
2018-02-25T14:47:19.217Z,-0.49
2018-02-25T14:49:52.940Z,-0.56
2018-02-25T14:52:26.836Z,-0.64
2018-02-25T14:55:00.741Z,-0.14
2018-02-25T14:57:34.580Z,-0.08
2018-02-25T15:00:08.297Z,-0.24
2018-02-25T15:02:42.149Z,-0.53
2018-02-25T15:05:15.853Z,-0.77
2018-02-25T15:07:49.513Z,-0.90
2018-02-25T15:10:23.277Z,-0.96
2018-02-25T15:12:57.039Z,-1.12
2018-02-25T15:15:30.962Z,-1.17
2018-02-25T15:18:04.836Z,-1.25
2018-02-25T15:20:38.710Z,-1.33
2018-02-25T15:23:12.613Z,-1.36
2018-02-25T15:25:46.329Z,-1.43
2018-02-25T15:28:20.228Z,-1.51
2018-02-25T15:30:54.117Z,-1.62
2018-02-25T15:33:28.058Z,-1.60
2018-02-25T15:36:01.714Z,-1.67
2018-02-25T15:38:35.520Z,-1.76
2018-02-25T15:41:09.322Z,-1.77
2018-02-25T15:43:43.221Z,-1.80
2018-02-25T15:46:16.954Z,-1.84
2018-02-25T15:48:50.964Z,-1.84
2018-02-25T15:51:24.869Z,-1.88
2018-02-25T15:53:58.590Z,-1.95
2018-02-25T15:56:32.513Z,-2.00
2018-02-25T15:59:06.473Z,-2.04
2018-02-25T16:01:40.434Z,-2.08
2018-02-25T16:04:14.373Z,-2.14
2018-02-25T16:06:48.142Z,-2.11
2018-02-25T16:09:21.909Z,-2.13
2018-02-25T16:11:55.678Z,-2.17
2018-02-25T16:14:29.416Z,-2.27
2018-02-25T16:17:03.237Z,-2.33
2018-02-25T16:19:37.165Z,-2.37
2018-02-25T16:22:10.922Z,-2.37
2018-02-25T16:24:44.821Z,-2.36
2018-02-25T16:27:18.506Z,-2.43
2018-02-25T16:29:52.418Z,-2.46
2018-02-25T16:32:26.275Z,-2.46
2018-02-25T16:35:01.042Z,-2.54
2018-02-25T16:37:35.085Z,-2.60
2018-02-25T16:40:08.837Z,-2.62
2018-02-25T16:42:42.687Z,-2.69
2018-02-25T16:45:16.662Z,-2.71
2018-02-25T16:47:50.584Z,-2.79
2018-02-25T16:50:24.346Z,-2.85
2018-02-25T16:52:58.226Z,-2.81
2018-02-25T16:55:32.098Z,-2.86
2018-02-25T16:58:05.986Z,-2.96
2018-02-25T17:00:39.868Z,-2.82
2018-02-25T17:03:13.644Z,-2.82
2018-02-25T17:05:47.617Z,-2.86
2018-02-25T17:08:21.394Z,-2.88
2018-02-25T17:10:55.262Z,-2.85
2018-02-25T17:13:29.146Z,-2.91
2018-02-25T17:16:02.949Z,-2.93
2018-02-25T17:18:36.848Z,-2.99
2018-02-25T17:21:10.777Z,-3.03
2018-02-25T17:23:44.550Z,-2.99
2018-02-25T17:26:18.274Z,-2.96
2018-02-25T17:28:52.262Z,-2.94
2018-02-25T17:31:26.058Z,-2.82
2018-02-25T17:33:59.874Z,-2.84
2018-02-25T17:36:33.614Z,-2.85
2018-02-25T17:39:07.359Z,-2.86
2018-02-25T17:41:41.109Z,-2.83
2018-02-25T17:44:14.790Z,-2.81
2018-02-25T17:46:48.609Z,-2.79
2018-02-25T17:49:22.364Z,-2.82
2018-02-25T17:51:56.074Z,-2.75
2018-02-25T17:54:29.957Z,-2.79
2018-02-25T17:57:03.684Z,-2.76
2018-02-25T17:59:37.541Z,-2.74
2018-02-25T18:02:11.316Z,-2.81
2018-02-25T18:04:45.065Z,-2.80
2018-02-25T18:07:18.870Z,-2.85
2018-02-25T18:09:52.655Z,-2.86
2018-02-25T18:12:26.369Z,-2.93
2018-02-25T18:15:00.206Z,-2.93
2018-02-25T18:17:33.915Z,-2.88
2018-02-25T18:20:07.592Z,-2.91
2018-02-25T18:22:41.318Z,-2.85
2018-02-25T18:25:15.095Z,-2.93
2018-02-25T18:27:49.131Z,-2.94
2018-02-25T18:30:22.852Z,-2.99
2018-02-25T18:32:56.622Z,-3.02
2018-02-25T18:35:30.310Z,-2.97
2018-02-25T18:38:04.018Z,-3.00
2018-02-25T18:40:37.921Z,-2.95
2018-02-25T18:43:11.845Z,-3.07
2018-02-25T18:45:45.606Z,-3.06
2018-02-25T18:48:19.420Z,-3.12
2018-02-25T18:50:53.265Z,-3.10
2018-02-25T18:53:27.013Z,-3.15
2018-02-25T18:56:00.750Z,-3.09
2018-02-25T18:58:34.556Z,-3.16
2018-02-25T19:01:08.290Z,-3.20
2018-02-25T19:03:42.129Z,-3.22
2018-02-25T19:06:15.935Z,-3.24
2018-02-25T19:08:49.869Z,-3.32
2018-02-25T19:11:23.573Z,-3.33
2018-02-25T19:13:57.452Z,-3.47
2018-02-25T19:16:31.493Z,-3.42
2018-02-25T19:19:05.388Z,-3.50
2018-02-25T19:21:39.142Z,-3.53
2018-02-25T19:24:13.104Z,-3.55
2018-02-25T19:26:46.862Z,-3.64
2018-02-25T19:29:20.575Z,-3.64
2018-02-25T19:31:54.342Z,-3.66
2018-02-25T19:34:29.178Z,-3.67
2018-02-25T19:37:08.486Z,-3.75
2018-02-25T19:39:47.995Z,-3.73
2018-02-25T19:42:21.932Z,-3.81
2018-02-25T19:44:55.626Z,-3.79
2018-02-25T19:47:29.498Z,-3.83
2018-02-25T19:50:03.403Z,-3.83
2018-02-25T19:52:37.063Z,-3.92
2018-02-25T19:55:10.805Z,-3.93
2018-02-25T19:57:44.482Z,-3.95
2018-02-25T20:00:18.254Z,-4.00
2018-02-25T20:02:52.023Z,-4.09
2018-02-25T20:05:25.905Z,-4.10
2018-02-25T20:07:59.833Z,-4.10
2018-02-25T20:10:33.530Z,-4.14
2018-02-25T20:13:07.297Z,-4.14
2018-02-25T20:15:40.959Z,-4.16
2018-02-25T20:18:14.670Z,-4.18
2018-02-25T20:20:48.395Z,-4.18
2018-02-25T20:23:22.081Z,-4.27
2018-02-25T20:25:55.802Z,-4.31
2018-02-25T20:28:29.486Z,-4.37
2018-02-25T20:31:03.233Z,-4.42
2018-02-25T20:33:36.974Z,-4.46
2018-02-25T20:36:10.690Z,-4.51
2018-02-25T20:38:44.429Z,-4.51
2018-02-25T20:41:18.161Z,-4.58
2018-02-25T20:43:52.549Z,-4.64
2018-02-25T20:46:26.425Z,-4.66
2018-02-25T20:49:00.124Z,-4.72
2018-02-25T20:51:33.928Z,-4.78
2018-02-25T20:54:07.682Z,-4.85
2018-02-25T20:56:41.431Z,-4.86
2018-02-25T20:59:15.431Z,-4.94
2018-02-25T21:01:49.181Z,-4.90
2018-02-25T21:04:22.978Z,-4.92
2018-02-25T21:06:56.698Z,-4.92
2018-02-25T21:09:30.357Z,-5.02
2018-02-25T21:12:04.022Z,-5.05
2018-02-25T21:14:37.666Z,-5.04
2018-02-25T21:17:11.401Z,-5.04
2018-02-25T21:19:45.263Z,-5.04
2018-02-25T21:22:19.013Z,-5.04
2018-02-25T21:24:53.037Z,-5.05
2018-02-25T21:27:26.870Z,-5.06
2018-02-25T21:30:00.556Z,-5.11
2018-02-25T21:32:34.329Z,-5.17
2018-02-25T21:35:08.140Z,-5.22
2018-02-25T21:37:41.825Z,-5.13
2018-02-25T21:40:15.518Z,-5.17
2018-02-25T21:42:49.236Z,-5.15
2018-02-25T21:45:23.050Z,-5.28
2018-02-25T21:47:56.760Z,-5.30
2018-02-25T21:50:30.606Z,-5.28
2018-02-25T21:53:04.406Z,-5.38
2018-02-25T21:55:38.114Z,-5.38
2018-02-25T21:58:17.737Z,-5.41
2018-02-25T22:00:57.105Z,-5.41
2018-02-25T22:03:36.954Z,-5.40
2018-02-25T22:06:10.856Z,-5.39
2018-02-25T22:08:44.574Z,-5.50
2018-02-25T22:11:18.346Z,-5.47
2018-02-25T22:13:52.066Z,-5.51
2018-02-25T22:16:25.881Z,-5.51
2018-02-25T22:18:59.589Z,-5.51
2018-02-25T22:21:33.358Z,-5.57
2018-02-25T22:24:07.211Z,-5.53
2018-02-25T22:26:40.861Z,-5.61
2018-02-25T22:29:14.586Z,-5.59
2018-02-25T22:31:48.326Z,-5.59
2018-02-25T22:34:22.070Z,-5.64
2018-02-25T22:36:55.716Z,-5.63
2018-02-25T22:39:29.586Z,-5.69
2018-02-25T22:42:03.369Z,-5.71
2018-02-25T22:44:37.144Z,-5.73
2018-02-25T22:47:10.821Z,-5.67
2018-02-25T22:49:44.754Z,-5.73
2018-02-25T22:52:18.413Z,-5.74
2018-02-25T22:54:52.219Z,-5.76
2018-02-25T22:57:25.929Z,-5.80
2018-02-25T22:59:59.646Z,-5.91
2018-02-25T23:02:33.441Z,-5.89
2018-02-25T23:05:07.122Z,-5.94
2018-02-25T23:07:40.805Z,-5.99
2018-02-25T23:10:14.663Z,-6.04
2018-02-25T23:12:48.602Z,-6.01
2018-02-25T23:15:22.266Z,-6.01
2018-02-25T23:17:55.985Z,-6.05
2018-02-25T23:20:29.668Z,-6.18
2018-02-25T23:23:03.382Z,-6.13
2018-02-25T23:25:37.154Z,-6.15
2018-02-25T23:28:10.893Z,-6.22
2018-02-25T23:30:44.794Z,-6.11
2018-02-25T23:33:18.521Z,-6.11
2018-02-25T23:35:52.477Z,-6.13
2018-02-25T23:38:26.182Z,-6.19
2018-02-25T23:40:59.990Z,-6.09
2018-02-25T23:43:33.699Z,-6.07
2018-02-25T23:46:07.474Z,-6.14
2018-02-25T23:48:41.191Z,-6.16
2018-02-25T23:51:15.123Z,-6.24
2018-02-25T23:53:48.930Z,-6.28
2018-02-25T23:56:22.774Z,-6.25
2018-02-25T23:58:56.675Z,-6.25
